sensor_id;sensor_type;location;lat;lon;timestamp;P1;durP1;ratioP1;P2;durP2;ratioP2
80586;SDS011;69943;20.850;106.728;2023-09-19T00:01:01;3.10;;;1.70;;
80586;SDS011;69943;20.850;106.728;2023-09-19T00:06:14;2.00;;;1.30;;
80586;SDS011;69943;20.850;106.728;2023-09-19T00:08:46;1.60;;;1.20;;
80586;SDS011;69943;20.850;106.728;2023-09-19T00:11:18;2.00;;;1.30;;
80586;SDS011;69943;20.850;106.728;2023-09-19T00:13:49;2.20;;;1.40;;
80586;SDS011;69943;20.850;106.728;2023-09-19T00:16:21;2.20;;;1.60;;
80586;SDS011;69943;20.850;106.728;2023-09-19T00:18:53;3.00;;;1.40;;
80586;SDS011;69943;20.850;106.728;2023-09-19T00:21:25;2.00;;;1.40;;
80586;SDS011;69943;20.850;106.728;2023-09-19T00:23:57;3.00;;;1.50;;
80586;SDS011;69943;20.850;106.728;2023-09-19T00:26:29;1.60;;;1.30;;
80586;SDS011;69943;20.850;106.728;2023-09-19T00:29:04;3.00;;;1.90;;
80586;SDS011;69943;20.850;106.728;2023-09-19T00:31:39;3.20;;;1.40;;
80586;SDS011;69943;20.850;106.728;2023-09-19T00:34:11;1.60;;;1.40;;
80586;SDS011;69943;20.850;106.728;2023-09-19T00:36:42;2.40;;;1.40;;
80586;SDS011;69943;20.850;106.728;2023-09-19T00:39:15;4.00;;;1.70;;
80586;SDS011;69943;20.850;106.728;2023-09-19T00:41:47;2.40;;;1.40;;
80586;SDS011;69943;20.850;106.728;2023-09-19T00:44:19;2.40;;;1.30;;
80586;SDS011;69943;20.850;106.728;2023-09-19T00:46:53;2.10;;;1.60;;
80586;SDS011;69943;20.850;106.728;2023-09-19T00:49:25;2.90;;;1.30;;
80586;SDS011;69943;20.850;106.728;2023-09-19T00:51:57;3.50;;;1.70;;
80586;SDS011;69943;20.850;106.728;2023-09-19T00:54:30;2.40;;;1.50;;
80586;SDS011;69943;20.850;106.728;2023-09-19T00:57:04;2.40;;;1.60;;
80586;SDS011;69943;20.850;106.728;2023-09-19T00:59:36;3.40;;;1.50;;
80586;SDS011;69943;20.850;106.728;2023-09-19T01:02:08;2.70;;;1.60;;
80586;SDS011;69943;20.850;106.728;2023-09-19T01:04:40;1.80;;;1.50;;
80586;SDS011;69943;20.850;106.728;2023-09-19T01:07:12;1.70;;;1.30;;
80586;SDS011;69943;20.850;106.728;2023-09-19T01:09:45;2.00;;;1.50;;
80586;SDS011;69943;20.850;106.728;2023-09-19T01:12:18;1.90;;;1.60;;
80586;SDS011;69943;20.850;106.728;2023-09-19T01:14:55;2.30;;;1.40;;
80586;SDS011;69943;20.850;106.728;2023-09-19T01:17:32;6.30;;;1.90;;
80586;SDS011;69943;20.850;106.728;2023-09-19T01:23:28;2.60;;;1.80;;
80586;SDS011;69943;20.850;106.728;2023-09-19T01:32:04;4.50;;;2.30;;
80586;SDS011;69943;20.850;106.728;2023-09-19T01:37:42;5.70;;;2.00;;
80586;SDS011;69943;20.850;106.728;2023-09-19T01:40:15;5.00;;;2.10;;
80586;SDS011;69943;20.850;106.728;2023-09-19T01:42:57;3.90;;;1.70;;
80586;SDS011;69943;20.850;106.728;2023-09-19T01:48:40;6.30;;;2.20;;
80586;SDS011;69943;20.850;106.728;2023-09-19T01:51:22;5.70;;;2.30;;
80586;SDS011;69943;20.850;106.728;2023-09-19T01:54:04;3.80;;;1.90;;
80586;SDS011;69943;20.850;106.728;2023-09-19T01:59:25;4.30;;;1.80;;
80586;SDS011;69943;20.850;106.728;2023-09-19T02:02:01;4.20;;;1.80;;
80586;SDS011;69943;20.850;106.728;2023-09-19T02:04:34;2.10;;;1.80;;
80586;SDS011;69943;20.850;106.728;2023-09-19T02:07:06;4.30;;;1.80;;
80586;SDS011;69943;20.850;106.728;2023-09-19T02:09:39;1.80;;;1.40;;
80586;SDS011;69943;20.850;106.728;2023-09-19T02:12:13;2.10;;;1.60;;
80586;SDS011;69943;20.850;106.728;2023-09-19T02:14:46;4.80;;;1.70;;
80586;SDS011;69943;20.850;106.728;2023-09-19T02:17:18;5.60;;;1.90;;
80586;SDS011;69943;20.850;106.728;2023-09-19T02:19:51;3.70;;;1.70;;
80586;SDS011;69943;20.850;106.728;2023-09-19T02:22:23;3.70;;;1.80;;
80586;SDS011;69943;20.850;106.728;2023-09-19T02:24:56;4.00;;;1.70;;
80586;SDS011;69943;20.850;106.728;2023-09-19T02:27:31;2.00;;;1.50;;
80586;SDS011;69943;20.850;106.728;2023-09-19T02:30:03;6.40;;;2.00;;
80586;SDS011;69943;20.850;106.728;2023-09-19T02:32:36;2.60;;;1.50;;
80586;SDS011;69943;20.850;106.728;2023-09-19T02:35:09;3.40;;;1.70;;
80586;SDS011;69943;20.850;106.728;2023-09-19T02:37:41;2.80;;;1.60;;
80586;SDS011;69943;20.850;106.728;2023-09-19T02:40:13;3.80;;;1.60;;
80586;SDS011;69943;20.850;106.728;2023-09-19T02:42:56;5.00;;;1.40;;
80586;SDS011;69943;20.850;106.728;2023-09-19T02:45:29;2.80;;;1.50;;
80586;SDS011;69943;20.850;106.728;2023-09-19T02:48:02;2.60;;;1.50;;
80586;SDS011;69943;20.850;106.728;2023-09-19T02:50:35;2.40;;;1.50;;
80586;SDS011;69943;20.850;106.728;2023-09-19T02:53:07;2.20;;;1.50;;
80586;SDS011;69943;20.850;106.728;2023-09-19T02:55:41;2.50;;;1.40;;
80586;SDS011;69943;20.850;106.728;2023-09-19T02:58:13;1.40;;;1.10;;
80586;SDS011;69943;20.850;106.728;2023-09-19T03:00:45;1.70;;;1.10;;
80586;SDS011;69943;20.850;106.728;2023-09-19T03:03:21;5.00;;;1.40;;
80586;SDS011;69943;20.850;106.728;2023-09-19T03:05:53;3.30;;;1.30;;
80586;SDS011;69943;20.850;106.728;2023-09-19T03:08:25;1.90;;;1.30;;
80586;SDS011;69943;20.850;106.728;2023-09-19T03:10:58;3.50;;;1.60;;
80586;SDS011;69943;20.850;106.728;2023-09-19T03:13:31;3.00;;;1.70;;
80586;SDS011;69943;20.850;106.728;2023-09-19T03:16:06;2.40;;;1.60;;
80586;SDS011;69943;20.850;106.728;2023-09-19T03:18:38;2.20;;;1.30;;
80586;SDS011;69943;20.850;106.728;2023-09-19T03:21:10;1.60;;;1.40;;
80586;SDS011;69943;20.850;106.728;2023-09-19T03:23:43;2.50;;;1.10;;
80586;SDS011;69943;20.850;106.728;2023-09-19T03:28:50;4.50;;;1.60;;
80586;SDS011;69943;20.850;106.728;2023-09-19T03:31:21;4.40;;;1.60;;
80586;SDS011;69943;20.850;106.728;2023-09-19T03:33:53;3.30;;;1.30;;
80586;SDS011;69943;20.850;106.728;2023-09-19T03:36:25;2.60;;;1.60;;
80586;SDS011;69943;20.850;106.728;2023-09-19T03:38:58;2.20;;;1.20;;
80586;SDS011;69943;20.850;106.728;2023-09-19T03:41:31;2.10;;;1.40;;
80586;SDS011;69943;20.850;106.728;2023-09-19T03:44:03;2.00;;;1.20;;
80586;SDS011;69943;20.850;106.728;2023-09-19T03:46:35;1.50;;;1.30;;
80586;SDS011;69943;20.850;106.728;2023-09-19T03:49:07;2.60;;;1.50;;
80586;SDS011;69943;20.850;106.728;2023-09-19T03:51:40;2.00;;;1.60;;
80586;SDS011;69943;20.850;106.728;2023-09-19T03:54:12;3.20;;;1.50;;
80586;SDS011;69943;20.850;106.728;2023-09-19T03:56:44;3.10;;;1.80;;
80586;SDS011;69943;20.850;106.728;2023-09-19T03:59:16;2.00;;;1.50;;
80586;SDS011;69943;20.850;106.728;2023-09-19T04:01:48;3.50;;;1.50;;
80586;SDS011;69943;20.850;106.728;2023-09-19T04:04:20;1.40;;;1.10;;
80586;SDS011;69943;20.850;106.728;2023-09-19T04:06:55;1.60;;;1.40;;
80586;SDS011;69943;20.850;106.728;2023-09-19T04:09:27;3.70;;;1.40;;
80586;SDS011;69943;20.850;106.728;2023-09-19T04:11:59;1.40;;;1.00;;
80586;SDS011;69943;20.850;106.728;2023-09-19T04:14:31;2.40;;;1.40;;
80586;SDS011;69943;20.850;106.728;2023-09-19T04:17:03;3.00;;;1.50;;
80586;SDS011;69943;20.850;106.728;2023-09-19T04:19:36;3.60;;;1.30;;
80586;SDS011;69943;20.850;106.728;2023-09-19T04:22:08;3.20;;;1.40;;
80586;SDS011;69943;20.850;106.728;2023-09-19T04:24:41;2.90;;;1.20;;
80586;SDS011;69943;20.850;106.728;2023-09-19T04:27:13;2.00;;;1.10;;
80586;SDS011;69943;20.850;106.728;2023-09-19T04:29:45;3.90;;;1.30;;
80586;SDS011;69943;20.850;106.728;2023-09-19T04:32:17;3.10;;;1.00;;
80586;SDS011;69943;20.850;106.728;2023-09-19T04:34:49;2.00;;;1.30;;
80586;SDS011;69943;20.850;106.728;2023-09-19T04:37:21;2.60;;;1.30;;
80586;SDS011;69943;20.850;106.728;2023-09-19T04:39:53;1.70;;;0.80;;
80586;SDS011;69943;20.850;106.728;2023-09-19T04:42:25;1.70;;;1.40;;
80586;SDS011;69943;20.850;106.728;2023-09-19T04:44:57;4.40;;;1.30;;
80586;SDS011;69943;20.850;106.728;2023-09-19T04:47:30;2.80;;;1.60;;
80586;SDS011;69943;20.850;106.728;2023-09-19T04:50:02;1.60;;;1.20;;
80586;SDS011;69943;20.850;106.728;2023-09-19T04:52:35;2.60;;;1.00;;
80586;SDS011;69943;20.850;106.728;2023-09-19T04:55:16;3.10;;;1.10;;
80586;SDS011;69943;20.850;106.728;2023-09-19T04:57:50;2.00;;;0.90;;
80586;SDS011;69943;20.850;106.728;2023-09-19T05:00:23;1.70;;;1.00;;
80586;SDS011;69943;20.850;106.728;2023-09-19T05:02:56;3.60;;;1.20;;
80586;SDS011;69943;20.850;106.728;2023-09-19T05:05:28;1.70;;;0.90;;
80586;SDS011;69943;20.850;106.728;2023-09-19T05:08:00;1.30;;;1.00;;
80586;SDS011;69943;20.850;106.728;2023-09-19T05:10:35;1.20;;;0.80;;
80586;SDS011;69943;20.850;106.728;2023-09-19T05:13:10;1.20;;;1.00;;
80586;SDS011;69943;20.850;106.728;2023-09-19T05:15:42;1.90;;;0.80;;
80586;SDS011;69943;20.850;106.728;2023-09-19T05:18:14;1.10;;;1.00;;
80586;SDS011;69943;20.850;106.728;2023-09-19T05:20:46;2.20;;;1.00;;
80586;SDS011;69943;20.850;106.728;2023-09-19T05:23:20;0.80;;;0.80;;
80586;SDS011;69943;20.850;106.728;2023-09-19T05:25:52;2.20;;;1.00;;
80586;SDS011;69943;20.850;106.728;2023-09-19T05:28:25;2.00;;;0.90;;
80586;SDS011;69943;20.850;106.728;2023-09-19T05:31:00;2.00;;;0.90;;
80586;SDS011;69943;20.850;106.728;2023-09-19T05:33:32;2.70;;;1.00;;
80586;SDS011;69943;20.850;106.728;2023-09-19T05:36:04;0.90;;;0.90;;
80586;SDS011;69943;20.850;106.728;2023-09-19T05:38:36;0.80;;;0.80;;
80586;SDS011;69943;20.850;106.728;2023-09-19T05:41:11;1.50;;;1.00;;
80586;SDS011;69943;20.850;106.728;2023-09-19T05:43:44;0.60;;;0.60;;
80586;SDS011;69943;20.850;106.728;2023-09-19T05:46:16;2.30;;;1.00;;
80586;SDS011;69943;20.850;106.728;2023-09-19T05:48:48;1.30;;;1.00;;
80586;SDS011;69943;20.850;106.728;2023-09-19T05:51:20;1.30;;;1.10;;
80586;SDS011;69943;20.850;106.728;2023-09-19T05:53:53;1.10;;;1.00;;
80586;SDS011;69943;20.850;106.728;2023-09-19T05:56:25;3.30;;;1.10;;
80586;SDS011;69943;20.850;106.728;2023-09-19T05:58:57;1.00;;;0.70;;
80586;SDS011;69943;20.850;106.728;2023-09-19T06:01:30;0.90;;;0.80;;
80586;SDS011;69943;20.850;106.728;2023-09-19T06:04:04;2.00;;;1.10;;
80586;SDS011;69943;20.850;106.728;2023-09-19T06:06:36;2.80;;;1.00;;
80586;SDS011;69943;20.850;106.728;2023-09-19T06:09:10;3.10;;;1.00;;
80586;SDS011;69943;20.850;106.728;2023-09-19T06:11:42;2.70;;;1.40;;
80586;SDS011;69943;20.850;106.728;2023-09-19T06:14:14;1.60;;;0.90;;
80586;SDS011;69943;20.850;106.728;2023-09-19T06:16:48;4.50;;;1.90;;
80586;SDS011;69943;20.850;106.728;2023-09-19T06:19:20;2.30;;;1.10;;
80586;SDS011;69943;20.850;106.728;2023-09-19T06:21:53;1.30;;;0.90;;
80586;SDS011;69943;20.850;106.728;2023-09-19T06:24:25;2.20;;;1.00;;
80586;SDS011;69943;20.850;106.728;2023-09-19T06:26:57;2.90;;;1.20;;
80586;SDS011;69943;20.850;106.728;2023-09-19T06:29:31;2.00;;;1.30;;
80586;SDS011;69943;20.850;106.728;2023-09-19T06:32:07;2.90;;;1.30;;
80586;SDS011;69943;20.850;106.728;2023-09-19T06:34:40;3.20;;;1.10;;
80586;SDS011;69943;20.850;106.728;2023-09-19T06:37:14;1.80;;;1.30;;
80586;SDS011;69943;20.850;106.728;2023-09-19T06:39:46;1.50;;;1.00;;
80586;SDS011;69943;20.850;106.728;2023-09-19T06:42:20;2.70;;;1.30;;
80586;SDS011;69943;20.850;106.728;2023-09-19T06:44:53;5.50;;;1.40;;
80586;SDS011;69943;20.850;106.728;2023-09-19T06:47:25;2.90;;;1.30;;
80586;SDS011;69943;20.850;106.728;2023-09-19T06:50:09;4.10;;;1.40;;
80586;SDS011;69943;20.850;106.728;2023-09-19T06:53:13;3.80;;;1.30;;
80586;SDS011;69943;20.850;106.728;2023-09-19T06:55:45;3.50;;;1.20;;
80586;SDS011;69943;20.850;106.728;2023-09-19T06:58:18;3.40;;;1.20;;
80586;SDS011;69943;20.850;106.728;2023-09-19T07:00:50;4.80;;;1.40;;
80586;SDS011;69943;20.850;106.728;2023-09-19T07:03:22;2.20;;;1.20;;
80586;SDS011;69943;20.850;106.728;2023-09-19T07:05:57;3.70;;;1.10;;
80586;SDS011;69943;20.850;106.728;2023-09-19T07:08:29;3.60;;;1.10;;
80586;SDS011;69943;20.850;106.728;2023-09-19T07:11:01;2.00;;;1.30;;
80586;SDS011;69943;20.850;106.728;2023-09-19T07:13:37;1.70;;;1.00;;
80586;SDS011;69943;20.850;106.728;2023-09-19T07:16:09;2.30;;;1.00;;
80586;SDS011;69943;20.850;106.728;2023-09-19T07:18:58;2.50;;;1.30;;
80586;SDS011;69943;20.850;106.728;2023-09-19T07:21:30;2.00;;;1.10;;
80586;SDS011;69943;20.850;106.728;2023-09-19T07:24:03;4.80;;;1.40;;
80586;SDS011;69943;20.850;106.728;2023-09-19T07:26:36;2.60;;;1.30;;
80586;SDS011;69943;20.850;106.728;2023-09-19T07:29:07;2.40;;;1.20;;
80586;SDS011;69943;20.850;106.728;2023-09-19T07:31:40;2.30;;;1.40;;
80586;SDS011;69943;20.850;106.728;2023-09-19T07:34:12;2.10;;;1.10;;
80586;SDS011;69943;20.850;106.728;2023-09-19T07:36:44;2.00;;;1.20;;
80586;SDS011;69943;20.850;106.728;2023-09-19T07:39:17;3.90;;;1.40;;
80586;SDS011;69943;20.850;106.728;2023-09-19T07:41:49;2.70;;;1.50;;
80586;SDS011;69943;20.850;106.728;2023-09-19T07:44:21;1.00;;;0.90;;
80586;SDS011;69943;20.850;106.728;2023-09-19T07:46:53;2.80;;;1.40;;
80586;SDS011;69943;20.850;106.728;2023-09-19T07:49:25;1.80;;;1.20;;
80586;SDS011;69943;20.850;106.728;2023-09-19T07:51:57;2.40;;;1.10;;
80586;SDS011;69943;20.850;106.728;2023-09-19T07:54:29;6.70;;;1.70;;
80586;SDS011;69943;20.850;106.728;2023-09-19T07:57:06;2.50;;;1.10;;
80586;SDS011;69943;20.850;106.728;2023-09-19T07:59:38;4.20;;;1.10;;
80586;SDS011;69943;20.850;106.728;2023-09-19T08:02:12;1.10;;;0.90;;
80586;SDS011;69943;20.850;106.728;2023-09-19T08:04:46;1.50;;;0.90;;
80586;SDS011;69943;20.850;106.728;2023-09-19T08:07:19;1.90;;;0.90;;
80586;SDS011;69943;20.850;106.728;2023-09-19T08:09:53;2.60;;;1.20;;
80586;SDS011;69943;20.850;106.728;2023-09-19T08:12:25;1.70;;;0.90;;
80586;SDS011;69943;20.850;106.728;2023-09-19T08:14:57;14.30;;;2.00;;
80586;SDS011;69943;20.850;106.728;2023-09-19T08:17:33;3.00;;;1.30;;
80586;SDS011;69943;20.850;106.728;2023-09-19T08:20:06;6.50;;;1.60;;
80586;SDS011;69943;20.850;106.728;2023-09-19T08:22:49;6.10;;;1.70;;
80586;SDS011;69943;20.850;106.728;2023-09-19T08:25:26;9.20;;;1.50;;
80586;SDS011;69943;20.850;106.728;2023-09-19T08:27:59;4.20;;;1.40;;
80586;SDS011;69943;20.850;106.728;2023-09-19T08:30:32;6.60;;;1.60;;
80586;SDS011;69943;20.850;106.728;2023-09-19T08:33:05;14.10;;;2.20;;
80586;SDS011;69943;20.850;106.728;2023-09-19T08:35:41;9.00;;;2.10;;
80586;SDS011;69943;20.850;106.728;2023-09-19T08:38:16;9.20;;;1.60;;
80586;SDS011;69943;20.850;106.728;2023-09-19T08:40:48;7.70;;;1.70;;
80586;SDS011;69943;20.850;106.728;2023-09-19T08:43:21;5.20;;;1.20;;
80586;SDS011;69943;20.850;106.728;2023-09-19T08:46:14;3.60;;;1.70;;
80586;SDS011;69943;20.850;106.728;2023-09-19T08:49:03;1.90;;;1.20;;
80586;SDS011;69943;20.850;106.728;2023-09-19T08:51:42;3.20;;;1.40;;
80586;SDS011;69943;20.850;106.728;2023-09-19T08:54:22;2.60;;;1.40;;
80586;SDS011;69943;20.850;106.728;2023-09-19T08:57:00;4.90;;;1.20;;
80586;SDS011;69943;20.850;106.728;2023-09-19T08:59:35;2.30;;;1.10;;
80586;SDS011;69943;20.850;106.728;2023-09-19T09:02:11;2.40;;;1.40;;
80586;SDS011;69943;20.850;106.728;2023-09-19T09:04:44;3.30;;;1.30;;
80586;SDS011;69943;20.850;106.728;2023-09-19T09:07:17;2.00;;;1.00;;
80586;SDS011;69943;20.850;106.728;2023-09-19T09:09:51;1.80;;;1.00;;
80586;SDS011;69943;20.850;106.728;2023-09-19T09:12:23;3.70;;;1.20;;
80586;SDS011;69943;20.850;106.728;2023-09-19T09:14:56;4.10;;;1.10;;
80586;SDS011;69943;20.850;106.728;2023-09-19T09:17:28;1.80;;;0.90;;
80586;SDS011;69943;20.850;106.728;2023-09-19T09:20:00;3.90;;;1.20;;
80586;SDS011;69943;20.850;106.728;2023-09-19T09:22:33;1.60;;;0.90;;
80586;SDS011;69943;20.850;106.728;2023-09-19T09:25:07;2.50;;;1.10;;
80586;SDS011;69943;20.850;106.728;2023-09-19T09:27:40;1.80;;;1.20;;
80586;SDS011;69943;20.850;106.728;2023-09-19T09:31:02;2.10;;;0.90;;
80586;SDS011;69943;20.850;106.728;2023-09-19T09:33:38;3.50;;;1.40;;
80586;SDS011;69943;20.850;106.728;2023-09-19T09:36:11;2.80;;;1.10;;
80586;SDS011;69943;20.850;106.728;2023-09-19T09:38:46;2.50;;;1.20;;
80586;SDS011;69943;20.850;106.728;2023-09-19T09:41:35;1.50;;;1.20;;
80586;SDS011;69943;20.850;106.728;2023-09-19T09:44:16;0.90;;;0.80;;
80586;SDS011;69943;20.850;106.728;2023-09-19T09:46:49;3.00;;;1.50;;
80586;SDS011;69943;20.850;106.728;2023-09-19T09:49:24;1.90;;;1.10;;
80586;SDS011;69943;20.850;106.728;2023-09-19T09:52:05;1.60;;;1.20;;
80586;SDS011;69943;20.850;106.728;2023-09-19T09:55:01;1.90;;;1.20;;
80586;SDS011;69943;20.850;106.728;2023-09-19T09:57:38;6.50;;;1.60;;
80586;SDS011;69943;20.850;106.728;2023-09-19T10:00:17;2.60;;;1.30;;
80586;SDS011;69943;20.850;106.728;2023-09-19T10:02:50;3.90;;;1.20;;
80586;SDS011;69943;20.850;106.728;2023-09-19T10:05:22;4.40;;;1.60;;
80586;SDS011;69943;20.850;106.728;2023-09-19T10:08:10;7.30;;;2.10;;
80586;SDS011;69943;20.850;106.728;2023-09-19T10:10:49;8.70;;;1.60;;
80586;SDS011;69943;20.850;106.728;2023-09-19T10:13:25;9.80;;;1.90;;
80586;SDS011;69943;20.850;106.728;2023-09-19T10:15:58;4.00;;;1.50;;
80586;SDS011;69943;20.850;106.728;2023-09-19T10:18:30;3.20;;;1.40;;
80586;SDS011;69943;20.850;106.728;2023-09-19T10:21:03;1.50;;;0.80;;
80586;SDS011;69943;20.850;106.728;2023-09-19T10:23:37;2.50;;;1.70;;
80586;SDS011;69943;20.850;106.728;2023-09-19T10:26:09;2.30;;;1.00;;
80586;SDS011;69943;20.850;106.728;2023-09-19T10:28:42;1.50;;;1.10;;
80586;SDS011;69943;20.850;106.728;2023-09-19T10:31:17;2.80;;;1.40;;
80586;SDS011;69943;20.850;106.728;2023-09-19T10:33:50;1.10;;;1.00;;
80586;SDS011;69943;20.850;106.728;2023-09-19T10:36:24;1.50;;;1.00;;
80586;SDS011;69943;20.850;106.728;2023-09-19T10:38:58;1.20;;;1.00;;
80586;SDS011;69943;20.850;106.728;2023-09-19T10:41:33;2.10;;;1.20;;
80586;SDS011;69943;20.850;106.728;2023-09-19T10:44:07;2.10;;;1.00;;
80586;SDS011;69943;20.850;106.728;2023-09-19T10:46:39;1.30;;;0.90;;
80586;SDS011;69943;20.850;106.728;2023-09-19T10:49:11;2.00;;;1.00;;
80586;SDS011;69943;20.850;106.728;2023-09-19T10:51:44;2.60;;;1.30;;
80586;SDS011;69943;20.850;106.728;2023-09-19T10:56:51;1.30;;;1.00;;
80586;SDS011;69943;20.850;106.728;2023-09-19T10:59:24;2.60;;;1.10;;
80586;SDS011;69943;20.850;106.728;2023-09-19T11:02:17;1.60;;;0.80;;
80586;SDS011;69943;20.850;106.728;2023-09-19T11:04:50;3.40;;;1.20;;
80586;SDS011;69943;20.850;106.728;2023-09-19T11:07:22;2.20;;;1.00;;
80586;SDS011;69943;20.850;106.728;2023-09-19T11:09:56;1.80;;;1.00;;
80586;SDS011;69943;20.850;106.728;2023-09-19T11:27:08;0.80;;;0.60;;
80586;SDS011;69943;20.850;106.728;2023-09-19T11:29:44;1.80;;;0.80;;
80586;SDS011;69943;20.850;106.728;2023-09-19T11:32:17;0.60;;;0.50;;
80586;SDS011;69943;20.850;106.728;2023-09-19T11:35:49;1.20;;;0.90;;
80586;SDS011;69943;20.850;106.728;2023-09-19T11:49:26;1.60;;;1.20;;
80586;SDS011;69943;20.850;106.728;2023-09-19T11:52:01;1.30;;;1.20;;
80586;SDS011;69943;20.850;106.728;2023-09-19T11:54:36;2.60;;;1.00;;
80586;SDS011;69943;20.850;106.728;2023-09-19T11:57:11;1.30;;;1.00;;
80586;SDS011;69943;20.850;106.728;2023-09-19T11:59:51;1.40;;;0.90;;
80586;SDS011;69943;20.850;106.728;2023-09-19T12:02:38;1.10;;;0.90;;
80586;SDS011;69943;20.850;106.728;2023-09-19T12:05:11;1.80;;;1.10;;
80586;SDS011;69943;20.850;106.728;2023-09-19T12:07:43;0.90;;;0.90;;
80586;SDS011;69943;20.850;106.728;2023-09-19T12:10:18;1.70;;;1.20;;
80586;SDS011;69943;20.850;106.728;2023-09-19T12:12:53;0.70;;;0.70;;
80586;SDS011;69943;20.850;106.728;2023-09-19T12:15:27;0.90;;;0.80;;
80586;SDS011;69943;20.850;106.728;2023-09-19T12:18:04;3.00;;;1.10;;
80586;SDS011;69943;20.850;106.728;2023-09-19T12:20:42;1.20;;;0.90;;
80586;SDS011;69943;20.850;106.728;2023-09-19T12:23:17;1.80;;;0.90;;
80586;SDS011;69943;20.850;106.728;2023-09-19T12:25:50;1.20;;;0.60;;
80586;SDS011;69943;20.850;106.728;2023-09-19T12:28:27;0.80;;;0.80;;
80586;SDS011;69943;20.850;106.728;2023-09-19T12:31:06;1.70;;;0.80;;
80586;SDS011;69943;20.850;106.728;2023-09-19T12:33:38;1.30;;;0.80;;
80586;SDS011;69943;20.850;106.728;2023-09-19T12:36:28;1.00;;;0.90;;
80586;SDS011;69943;20.850;106.728;2023-09-19T12:39:01;0.70;;;0.70;;
80586;SDS011;69943;20.850;106.728;2023-09-19T12:41:38;1.50;;;1.20;;
80586;SDS011;69943;20.850;106.728;2023-09-19T12:44:10;0.70;;;0.70;;
80586;SDS011;69943;20.850;106.728;2023-09-19T12:46:43;1.50;;;1.10;;
80586;SDS011;69943;20.850;106.728;2023-09-19T12:49:18;2.60;;;1.20;;
80586;SDS011;69943;20.850;106.728;2023-09-19T12:51:51;1.30;;;1.00;;
80586;SDS011;69943;20.850;106.728;2023-09-19T12:54:41;1.20;;;1.00;;
80586;SDS011;69943;20.850;106.728;2023-09-19T13:00:39;7.10;;;1.40;;
80586;SDS011;69943;20.850;106.728;2023-09-19T13:06:14;2.20;;;1.00;;
80586;SDS011;69943;20.850;106.728;2023-09-19T13:09:31;1.60;;;1.20;;
80586;SDS011;69943;20.850;106.728;2023-09-19T13:15:13;2.30;;;1.20;;
80586;SDS011;69943;20.850;106.728;2023-09-19T13:21:07;1.20;;;1.10;;
80586;SDS011;69943;20.850;106.728;2023-09-19T13:24:25;1.70;;;1.30;;
80586;SDS011;69943;20.850;106.728;2023-09-19T13:30:18;2.90;;;1.40;;
80586;SDS011;69943;20.850;106.728;2023-09-19T13:36:30;1.60;;;0.80;;
80586;SDS011;69943;20.850;106.728;2023-09-19T13:39:02;1.10;;;1.00;;
80586;SDS011;69943;20.850;106.728;2023-09-19T13:41:38;2.40;;;1.40;;
80586;SDS011;69943;20.850;106.728;2023-09-19T13:47:58;2.30;;;1.10;;
80586;SDS011;69943;20.850;106.728;2023-09-19T13:50:30;1.30;;;1.20;;
80586;SDS011;69943;20.850;106.728;2023-09-19T13:53:02;1.80;;;1.00;;
80586;SDS011;69943;20.850;106.728;2023-09-19T13:55:34;1.50;;;1.40;;
80586;SDS011;69943;20.850;106.728;2023-09-19T13:58:08;1.70;;;1.00;;
80586;SDS011;69943;20.850;106.728;2023-09-19T14:00:41;1.30;;;1.00;;
80586;SDS011;69943;20.850;106.728;2023-09-19T14:03:13;1.30;;;1.10;;
80586;SDS011;69943;20.850;106.728;2023-09-19T14:05:45;1.00;;;0.90;;
80586;SDS011;69943;20.850;106.728;2023-09-19T14:08:18;1.30;;;1.10;;
80586;SDS011;69943;20.850;106.728;2023-09-19T14:10:50;1.70;;;1.30;;
80586;SDS011;69943;20.850;106.728;2023-09-19T14:13:23;2.80;;;1.30;;
80586;SDS011;69943;20.850;106.728;2023-09-19T14:15:56;2.00;;;1.00;;
80586;SDS011;69943;20.850;106.728;2023-09-19T14:18:28;1.20;;;1.00;;
80586;SDS011;69943;20.850;106.728;2023-09-19T14:21:06;1.70;;;1.00;;
80586;SDS011;69943;20.850;106.728;2023-09-19T14:23:42;1.20;;;0.80;;
80586;SDS011;69943;20.850;106.728;2023-09-19T14:26:14;1.70;;;1.10;;
80586;SDS011;69943;20.850;106.728;2023-09-19T14:28:47;0.90;;;0.90;;
80586;SDS011;69943;20.850;106.728;2023-09-19T14:31:19;1.30;;;0.90;;
80586;SDS011;69943;20.850;106.728;2023-09-19T14:33:54;2.30;;;1.10;;
80586;SDS011;69943;20.850;106.728;2023-09-19T14:36:27;1.60;;;1.20;;
80586;SDS011;69943;20.850;106.728;2023-09-19T14:39:02;2.60;;;1.10;;
80586;SDS011;69943;20.850;106.728;2023-09-19T14:41:34;1.90;;;1.20;;
80586;SDS011;69943;20.850;106.728;2023-09-19T14:44:05;1.50;;;1.00;;
80586;SDS011;69943;20.850;106.728;2023-09-19T14:46:38;1.90;;;1.30;;
80586;SDS011;69943;20.850;106.728;2023-09-19T14:49:10;1.30;;;1.00;;
80586;SDS011;69943;20.850;106.728;2023-09-19T14:51:42;2.10;;;1.30;;
80586;SDS011;69943;20.850;106.728;2023-09-19T14:54:20;1.40;;;1.00;;
80586;SDS011;69943;20.850;106.728;2023-09-19T14:56:54;1.70;;;1.10;;
80586;SDS011;69943;20.850;106.728;2023-09-19T14:59:35;1.40;;;1.30;;
80586;SDS011;69943;20.850;106.728;2023-09-19T15:02:09;2.70;;;1.30;;
80586;SDS011;69943;20.850;106.728;2023-09-19T15:04:41;6.40;;;1.20;;
80586;SDS011;69943;20.850;106.728;2023-09-19T15:07:17;1.80;;;1.20;;
80586;SDS011;69943;20.850;106.728;2023-09-19T15:09:52;1.20;;;1.10;;
80586;SDS011;69943;20.850;106.728;2023-09-19T15:12:24;2.00;;;1.10;;
80586;SDS011;69943;20.850;106.728;2023-09-19T15:14:55;1.80;;;1.30;;
80586;SDS011;69943;20.850;106.728;2023-09-19T15:17:27;2.00;;;1.20;;
80586;SDS011;69943;20.850;106.728;2023-09-19T15:19:59;2.60;;;1.60;;
80586;SDS011;69943;20.850;106.728;2023-09-19T15:22:35;1.40;;;1.20;;
80586;SDS011;69943;20.850;106.728;2023-09-19T15:27:39;1.00;;;0.90;;
80586;SDS011;69943;20.850;106.728;2023-09-19T15:30:12;1.10;;;1.00;;
80586;SDS011;69943;20.850;106.728;2023-09-19T15:32:45;1.00;;;0.90;;
80586;SDS011;69943;20.850;106.728;2023-09-19T15:35:17;1.40;;;1.00;;
80586;SDS011;69943;20.850;106.728;2023-09-19T15:37:49;1.20;;;1.00;;
80586;SDS011;69943;20.850;106.728;2023-09-19T15:40:23;2.20;;;1.10;;
80586;SDS011;69943;20.850;106.728;2023-09-19T15:42:55;1.60;;;1.10;;
80586;SDS011;69943;20.850;106.728;2023-09-19T15:45:27;2.30;;;1.30;;
80586;SDS011;69943;20.850;106.728;2023-09-19T15:47:59;1.70;;;1.10;;
80586;SDS011;69943;20.850;106.728;2023-09-19T15:50:31;1.80;;;1.00;;
80586;SDS011;69943;20.850;106.728;2023-09-19T15:53:03;1.30;;;1.20;;
80586;SDS011;69943;20.850;106.728;2023-09-19T15:55:41;1.70;;;1.10;;
80586;SDS011;69943;20.850;106.728;2023-09-19T15:58:14;2.20;;;1.30;;
80586;SDS011;69943;20.850;106.728;2023-09-19T16:00:46;1.60;;;1.10;;
80586;SDS011;69943;20.850;106.728;2023-09-19T16:03:18;1.00;;;0.70;;
80586;SDS011;69943;20.850;106.728;2023-09-19T16:06:07;1.40;;;1.20;;
80586;SDS011;69943;20.850;106.728;2023-09-19T16:08:49;1.00;;;0.90;;
80586;SDS011;69943;20.850;106.728;2023-09-19T16:11:28;1.10;;;1.00;;
80586;SDS011;69943;20.850;106.728;2023-09-19T16:14:10;2.80;;;1.10;;
80586;SDS011;69943;20.850;106.728;2023-09-19T16:17:15;1.00;;;0.90;;
80586;SDS011;69943;20.850;106.728;2023-09-19T16:19:46;1.30;;;1.00;;
80586;SDS011;69943;20.850;106.728;2023-09-19T16:22:19;1.20;;;1.10;;